If you wish to contribute or participate in the discussions about articles you are invited to join SKYbrary as a registered user

 Actions

Huambo/Albano Machado Airport

From SKYbrary Wiki

FNHU
Airport
ICAO: FNHU – IATA: NOV
Summary
Name Huambo/Albano Machado Airport
Region Africa
Territory Angola AO.gif
Location Huambo, Huambo
Serving Huambo
Elevation 1,702.918 m
5,587 ft
5,587 ft1,702.918 m
Coordinates 12° 48' 31.96" S, 15° 45' 37.97" E
Runways
Designator Length Width Surface ROPS
1/19 1000 m3,280.84 ft
0 m0 ft
UNK /
11/29 2660 m8,727.034 ft
45 m147.638 ft
ASP /


METAR
Observation FNHU 230600Z 18005KT 9000 NSC 09/01 Q1024
Station Huambo Nova Lisboa
Date/Time 23 July 2019 06:00:00
Wind direction 180°
Wind speed 05 kts
Lowest cloud amount nil significant cloud
Temperature 9°C
Dew point 1°C
Humidity 57%
QNH 1024 hPa
Weather condition n/a

The Albano Machado Airport is a public airport located southeast of Huambo, a city in Angola. It used to be named the Nova Lisboa Airport, since in colonial times the city was called Nova Lisboa, or New Lisbon.

Maps

Terrain

Loading map...

Airport Layout

Loading map...


Accidents & Serious Incidents at or in vicinity of FNHU

None on SKYbrary